Hovedside
METAR-TAF:

METAR-TAF

Lufthavner :

Stavanger lufthavn. Sola

Stavanger, Norge

breddegrad: 58-53N, lengdegrad: 005-38E, høyde over havet: 0 m

Gjeldene værobservasjon

Denne rapporten ble laget for 27 minutter siden, klokken 19:50 UTC
Vind 5 kt fra Sørøst
Temperatur 3°C
Luftfuktighet 81%
Trykk 1012 hPa
Sikt 10 km eller mer
ingen skyer under 1500 m og ingen bygeskyer

METAR: ENZV 141950Z 14005KT CAVOK 03/00 Q1012 NOSIG

Tid: 21:17 (20:17 UTC)

Varsel

Varsel gyldig fra 14. klokken 18 UTC til 15. klokken 18 UTC
Vind 8 kt fra Øst-sørøst
Sikt 10 km eller mer
Brutte skyer i en høyde av 5000 ft

TAF: ENZV 1418/1518 12008KT 9999 BKN050

Værobservasjoner og værvarsel for over 4000 flyplasser (METAR- og TAF-rapporter).

Tilgjengelige stasjoner er representert av de røde og gule prikkene på kartet.

Hold musepekeren over prikken for å se navnet på stasjonen.

Klikk så for å se værobservasjoner og -varsler.

For å forandre kartet kan du klikke på den grønne knappen med svart kryss for å zoome inn, på den grønne knappen med strek for å zoome ut, eller på de grønne pilene for å se tilstøtende kart.


METAR-TAF: